createdAt,value
2022-10-23T00:00:12.541Z,11.75
2022-10-23T00:01:16.070Z,11.75
2022-10-23T00:02:19.043Z,11.75
2022-10-23T00:03:54.737Z,11.75
2022-10-23T00:04:57.631Z,11.75
2022-10-23T00:06:00.440Z,11.75
2022-10-23T00:07:35.411Z,11.75
2022-10-23T00:08:38.082Z,11.75
2022-10-23T00:09:40.857Z,11.69
2022-10-23T00:11:15.401Z,11.75
2022-10-23T00:12:18.284Z,11.75
2022-10-23T00:13:21.912Z,11.75
2022-10-23T00:14:56.530Z,11.75
2022-10-23T00:15:59.539Z,11.75
2022-10-23T00:17:02.542Z,11.75
2022-10-23T00:18:37.210Z,11.75
2022-10-23T00:19:40.962Z,11.75
2022-10-23T00:20:43.988Z,11.81
2022-10-23T00:22:18.829Z,11.81
2022-10-23T00:23:21.759Z,11.81
2022-10-23T00:24:24.913Z,11.81
2022-10-23T00:25:59.534Z,11.81
2022-10-23T00:27:02.224Z,11.81
2022-10-23T00:28:05.092Z,11.81
2022-10-23T00:29:40.040Z,11.81
2022-10-23T00:30:42.828Z,11.81
2022-10-23T00:31:45.798Z,11.75
2022-10-23T00:33:20.379Z,11.75
2022-10-23T00:34:23.253Z,11.75
2022-10-23T00:35:26.518Z,11.81
2022-10-23T00:37:01.279Z,11.81
2022-10-23T00:38:04.128Z,11.75
2022-10-23T00:39:07.031Z,11.75
2022-10-23T00:40:41.973Z,11.75
2022-10-23T00:41:44.805Z,11.75
2022-10-23T00:42:47.881Z,11.75
2022-10-23T00:44:22.511Z,11.75
2022-10-23T00:45:25.197Z,11.75
2022-10-23T00:46:27.810Z,11.75
2022-10-23T00:48:02.246Z,11.75
2022-10-23T00:49:05.280Z,11.75
2022-10-23T00:50:09.842Z,11.75
2022-10-23T00:51:44.444Z,11.75
2022-10-23T00:52:47.123Z,11.69
2022-10-23T00:54:00.976Z,11.69
2022-10-23T00:55:54.325Z,11.69
2022-10-23T00:56:57.165Z,11.69
2022-10-23T00:58:00.376Z,11.69
2022-10-23T00:59:35.005Z,11.63
2022-10-23T01:00:12.365Z,11.63
2022-10-23T01:01:15.418Z,11.63
2022-10-23T01:02:20.031Z,11.63
2022-10-23T01:03:55.781Z,11.63
2022-10-23T01:04:58.778Z,11.63
2022-10-23T01:06:01.658Z,11.63
2022-10-23T01:07:36.295Z,11.63
2022-10-23T01:08:39.602Z,11.56
2022-10-23T01:09:42.485Z,11.56
2022-10-23T01:11:17.185Z,11.56
2022-10-23T01:12:19.997Z,11.56
2022-10-23T01:13:22.910Z,11.56
2022-10-23T01:14:57.669Z,11.56
2022-10-23T01:16:00.531Z,11.56
2022-10-23T01:17:03.262Z,11.56
2022-10-23T01:18:37.943Z,11.56
2022-10-23T01:19:40.626Z,11.56
2022-10-23T01:20:43.364Z,11.56
2022-10-23T01:22:17.935Z,11.56
2022-10-23T01:23:21.594Z,11.56
2022-10-23T01:24:24.305Z,11.50
2022-10-23T01:25:59.105Z,11.50
2022-10-23T01:27:01.851Z,11.50
2022-10-23T01:28:04.695Z,11.50
2022-10-23T01:29:39.274Z,11.50
2022-10-23T01:31:44.711Z,11.50
2022-10-23T01:33:20.375Z,11.50
2022-10-23T01:34:23.216Z,11.50
2022-10-23T01:35:26.113Z,11.50
2022-10-23T01:37:00.963Z,11.50
2022-10-23T01:38:03.694Z,11.50
2022-10-23T01:39:06.395Z,11.50
2022-10-23T01:40:41.337Z,11.50
2022-10-23T01:41:44.027Z,11.50
2022-10-23T01:42:47.014Z,11.50
2022-10-23T01:44:21.638Z,11.50
2022-10-23T01:45:24.251Z,11.56
2022-10-23T01:46:27.140Z,11.56
2022-10-23T01:48:01.718Z,11.56
2022-10-23T01:49:04.446Z,11.56
2022-10-23T01:50:07.358Z,11.56
2022-10-23T01:51:42.056Z,11.63
2022-10-23T01:52:44.693Z,11.63
2022-10-23T01:53:47.504Z,11.63
2022-10-23T01:55:22.269Z,11.69
2022-10-23T01:56:25.630Z,11.69
2022-10-23T01:57:28.447Z,11.69
2022-10-23T01:59:03.492Z,11.69
2022-10-23T02:00:11.891Z,11.69
2022-10-23T02:01:14.918Z,11.69
2022-10-23T02:02:18.981Z,11.63
2022-10-23T02:03:53.943Z,11.69
2022-10-23T02:04:56.698Z,11.63
2022-10-23T02:05:59.615Z,11.69
2022-10-23T02:07:34.417Z,11.63
2022-10-23T02:08:37.989Z,11.63
2022-10-23T02:09:40.748Z,11.63
2022-10-23T02:11:15.609Z,11.63
2022-10-23T02:12:18.501Z,11.63
2022-10-23T02:13:21.390Z,11.56
2022-10-23T02:14:55.986Z,11.56
2022-10-23T02:15:59.178Z,11.56
2022-10-23T02:17:02.011Z,11.56
2022-10-23T02:18:36.898Z,11.56
2022-10-23T02:19:39.636Z,11.50
2022-10-23T02:22:17.389Z,11.50
2022-10-23T02:23:20.617Z,11.50
2022-10-23T02:24:27.328Z,11.50
2022-10-23T02:26:01.988Z,11.44
2022-10-23T02:27:04.843Z,11.44
2022-10-23T02:28:07.799Z,11.44
2022-10-23T02:29:42.505Z,11.44
2022-10-23T02:30:45.330Z,11.44
2022-10-23T02:31:48.032Z,11.44
2022-10-23T02:33:23.332Z,11.44
2022-10-23T02:34:26.166Z,11.44
2022-10-23T02:35:28.944Z,11.44
2022-10-23T02:37:03.565Z,11.38
2022-10-23T02:38:07.466Z,11.38
2022-10-23T02:39:10.355Z,11.38
2022-10-23T02:40:44.859Z,11.38
2022-10-23T02:41:47.561Z,11.38
2022-10-23T02:42:50.404Z,11.31
2022-10-23T02:44:25.004Z,11.31
2022-10-23T02:45:28.026Z,11.31
2022-10-23T02:46:31.031Z,11.31
2022-10-23T02:48:05.769Z,11.31
2022-10-23T02:49:08.538Z,11.31
2022-10-23T02:50:11.451Z,11.31
2022-10-23T02:51:46.148Z,11.31
2022-10-23T02:52:48.949Z,11.25
2022-10-23T02:53:51.801Z,11.25
2022-10-23T02:55:26.373Z,11.25
2022-10-23T02:56:29.357Z,11.25
2022-10-23T02:57:35.991Z,11.25
2022-10-23T02:59:11.440Z,11.25
2022-10-23T03:00:12.751Z,11.25
2022-10-23T03:01:15.797Z,11.25
2022-10-23T03:02:19.986Z,11.25
2022-10-23T03:03:55.183Z,11.25
2022-10-23T03:04:57.995Z,11.25
2022-10-23T03:06:00.694Z,11.25
2022-10-23T03:07:35.542Z,11.25
2022-10-23T03:08:38.627Z,11.25
2022-10-23T03:09:41.321Z,11.25
2022-10-23T03:11:16.072Z,11.19
2022-10-23T03:12:18.862Z,11.19
2022-10-23T03:13:22.253Z,11.19
2022-10-23T03:14:56.938Z,11.19
2022-10-23T03:15:59.816Z,11.19
2022-10-23T03:17:02.731Z,11.19
2022-10-23T03:18:37.270Z,11.19
2022-10-23T03:19:40.227Z,11.19
2022-10-23T03:20:43.050Z,11.13
2022-10-23T03:22:18.006Z,11.13
2022-10-23T03:23:21.422Z,11.19
2022-10-23T03:24:24.351Z,11.19
2022-10-23T03:25:59.139Z,11.19
2022-10-23T03:27:01.985Z,11.19
2022-10-23T03:28:05.271Z,11.19
2022-10-23T03:29:39.901Z,11.19
2022-10-23T03:30:42.696Z,11.19
2022-10-23T03:31:45.596Z,11.25
2022-10-23T03:33:21.016Z,11.25
2022-10-23T03:34:23.835Z,11.25
2022-10-23T03:35:26.885Z,11.25
2022-10-23T03:37:01.897Z,11.25
2022-10-23T03:38:04.687Z,11.25
2022-10-23T03:39:07.660Z,11.25
2022-10-23T03:40:42.447Z,11.19
2022-10-23T03:41:45.496Z,11.19
2022-10-23T03:42:48.631Z,11.19
2022-10-23T03:44:23.377Z,11.19
2022-10-23T03:45:26.146Z,11.19
2022-10-23T03:46:28.847Z,11.19
2022-10-23T03:48:03.424Z,11.19
2022-10-23T03:49:06.118Z,11.19
2022-10-23T03:50:08.760Z,11.19
2022-10-23T03:51:43.306Z,11.19
2022-10-23T03:52:46.329Z,11.19
2022-10-23T03:53:49.384Z,11.19
2022-10-23T03:55:23.914Z,11.19
2022-10-23T03:56:26.780Z,11.19
2022-10-23T03:57:34.147Z,11.19
2022-10-23T03:59:08.796Z,11.19
2022-10-23T04:00:12.029Z,11.19
2022-10-23T04:01:14.969Z,11.19
2022-10-23T04:02:19.314Z,11.19
2022-10-23T04:03:55.273Z,11.19
2022-10-23T04:04:57.979Z,11.19
2022-10-23T04:05:40.749Z,11.19
2022-10-23T04:06:44.383Z,11.19
2022-10-23T04:07:47.977Z,11.19
2022-10-23T04:09:27.088Z,11.19
2022-10-23T04:10:30.249Z,11.19
2022-10-23T04:11:33.382Z,11.19
2022-10-23T04:13:08.276Z,11.19
2022-10-23T04:14:11.353Z,11.19
2022-10-23T04:15:14.199Z,11.25
2022-10-23T04:16:49.097Z,11.19
2022-10-23T04:17:52.031Z,11.19
2022-10-23T04:18:54.969Z,11.19
2022-10-23T04:20:29.474Z,11.19
2022-10-23T04:21:32.441Z,11.19
2022-10-23T04:22:35.392Z,11.13
2022-10-23T04:24:10.942Z,11.19
2022-10-23T04:25:13.649Z,11.13
2022-10-23T04:26:16.899Z,11.13
2022-10-23T04:27:51.795Z,11.13
2022-10-23T04:28:54.752Z,11.06
2022-10-23T04:29:59.104Z,11.06
2022-10-23T04:31:34.104Z,11.06
2022-10-23T04:32:36.980Z,11.06
2022-10-23T04:33:39.766Z,11.06
2022-10-23T04:35:14.412Z,11.06
2022-10-23T04:36:17.538Z,11.06
2022-10-23T04:37:20.722Z,11.06
2022-10-23T04:38:55.952Z,11.13
2022-10-23T04:39:58.814Z,11.13
2022-10-23T04:41:01.710Z,11.13
2022-10-23T04:42:36.810Z,11.13
2022-10-23T04:43:40.243Z,11.19
2022-10-23T04:44:42.993Z,11.13
2022-10-23T04:46:17.743Z,11.13
2022-10-23T04:47:20.525Z,11.13
2022-10-23T04:48:25.668Z,11.13
2022-10-23T04:50:03.294Z,11.06
2022-10-23T04:51:06.350Z,11.06
2022-10-23T04:52:09.458Z,11.06
2022-10-23T04:53:44.091Z,11.00
2022-10-23T04:54:46.845Z,11.00
2022-10-23T04:55:49.863Z,11.00
2022-10-23T04:57:24.482Z,11.00
2022-10-23T04:58:27.328Z,11.00
2022-10-23T04:59:30.328Z,11.00
2022-10-23T05:00:12.510Z,11.00
2022-10-23T05:01:15.730Z,11.00
2022-10-23T05:02:19.727Z,11.00
2022-10-23T05:03:55.003Z,11.00
2022-10-23T05:04:57.775Z,11.00
2022-10-23T05:06:00.531Z,11.00
2022-10-23T05:07:35.201Z,11.00
2022-10-23T05:08:38.572Z,11.00
2022-10-23T05:09:41.561Z,11.00
2022-10-23T05:11:16.175Z,11.00
2022-10-23T05:12:19.325Z,11.00
2022-10-23T05:13:22.300Z,11.00
2022-10-23T05:15:03.211Z,11.00
2022-10-23T05:16:06.065Z,11.06
2022-10-23T05:17:09.181Z,11.06
2022-10-23T05:18:43.821Z,11.06
2022-10-23T05:19:46.759Z,11.00
2022-10-23T05:20:50.095Z,11.06
2022-10-23T05:22:24.949Z,11.06
2022-10-23T05:23:27.822Z,11.06
2022-10-23T05:24:31.116Z,11.06
2022-10-23T05:26:09.471Z,11.06
2022-10-23T05:27:12.128Z,11.06
2022-10-23T05:28:15.560Z,11.06
2022-10-23T05:29:50.282Z,11.13
2022-10-23T05:30:53.216Z,11.13
2022-10-23T05:31:56.201Z,11.13
2022-10-23T05:33:31.597Z,11.13
2022-10-23T05:34:34.362Z,11.13
2022-10-23T05:35:37.349Z,11.13
2022-10-23T05:37:11.798Z,11.13
2022-10-23T05:38:14.650Z,11.13
2022-10-23T05:39:17.438Z,11.13
2022-10-23T05:40:52.066Z,11.13
2022-10-23T05:41:54.911Z,11.13
2022-10-23T05:42:58.045Z,11.19
2022-10-23T05:44:32.954Z,11.19
2022-10-23T05:45:35.680Z,11.19
2022-10-23T05:46:38.608Z,11.19
2022-10-23T05:48:29.723Z,11.25
2022-10-23T05:49:34.500Z,11.25
2022-10-23T05:50:37.272Z,11.25
2022-10-23T05:52:12.085Z,11.25
2022-10-23T05:53:15.214Z,11.25
2022-10-23T05:54:22.845Z,11.25
2022-10-23T05:55:57.613Z,11.31
2022-10-23T05:57:00.454Z,11.31
2022-10-23T05:58:03.635Z,11.31
2022-10-23T05:59:38.276Z,11.38
2022-10-23T06:00:12.153Z,11.38
2022-10-23T06:01:15.192Z,11.38
2022-10-23T06:02:19.045Z,11.38
2022-10-23T06:03:54.386Z,11.38
2022-10-23T06:04:57.418Z,11.38
2022-10-23T06:06:00.473Z,11.38
2022-10-23T06:07:36.031Z,11.38
2022-10-23T06:08:39.270Z,11.38
2022-10-23T06:09:42.164Z,11.38
2022-10-23T06:11:16.710Z,11.38
2022-10-23T06:12:19.826Z,11.38
2022-10-23T06:13:22.566Z,11.44
2022-10-23T06:14:57.468Z,11.44
2022-10-23T06:16:00.319Z,11.44
2022-10-23T06:17:07.461Z,11.44
2022-10-23T06:18:42.271Z,11.44
2022-10-23T06:19:45.093Z,11.44
2022-10-23T06:20:47.951Z,11.50
2022-10-23T06:22:22.778Z,11.50
2022-10-23T06:23:26.365Z,11.50
2022-10-23T06:24:29.369Z,11.50
2022-10-23T06:26:04.102Z,11.50
2022-10-23T06:27:06.762Z,11.50
2022-10-23T06:28:09.740Z,11.56
2022-10-23T06:29:49.091Z,11.56
2022-10-23T06:30:51.835Z,11.56
2022-10-23T06:31:54.648Z,11.56
2022-10-23T06:33:29.838Z,11.56
2022-10-23T06:34:32.546Z,11.63
2022-10-23T06:35:35.479Z,11.63
2022-10-23T06:37:10.104Z,11.63
2022-10-23T06:38:13.017Z,11.69
2022-10-23T06:39:15.815Z,11.69
2022-10-23T06:40:55.672Z,11.69
2022-10-23T06:41:58.956Z,11.69
2022-10-23T06:43:02.047Z,11.69
2022-10-23T06:44:36.963Z,11.69
2022-10-23T06:45:46.863Z,11.75
2022-10-23T06:46:49.752Z,11.75
2022-10-23T06:48:25.413Z,11.75
2022-10-23T06:49:28.658Z,11.75
2022-10-23T06:50:31.646Z,11.75
2022-10-23T06:52:11.058Z,11.75
2022-10-23T06:53:43.578Z,11.75
2022-10-23T06:54:46.293Z,11.81
2022-10-23T06:56:24.950Z,11.81
2022-10-23T06:57:27.743Z,11.81
2022-10-23T06:58:31.430Z,11.81
2022-10-23T07:00:12.818Z,11.81
2022-10-23T07:01:16.480Z,11.81
2022-10-23T07:02:21.441Z,11.81
2022-10-23T07:03:56.743Z,11.81
2022-10-23T07:04:59.625Z,11.81
2022-10-23T07:06:07.498Z,11.81
2022-10-23T07:07:42.502Z,11.88
2022-10-23T07:08:45.437Z,11.88
2022-10-23T07:09:48.413Z,11.88
2022-10-23T07:11:23.435Z,11.88
2022-10-23T07:12:26.293Z,11.88
2022-10-23T07:13:29.680Z,11.88
2022-10-23T07:15:04.474Z,11.88
2022-10-23T07:16:07.526Z,11.88
2022-10-23T07:17:10.469Z,11.88
2022-10-23T07:18:45.161Z,11.88
2022-10-23T07:19:47.911Z,11.88
2022-10-23T07:20:50.874Z,11.94
2022-10-23T07:22:25.501Z,11.94
2022-10-23T07:23:28.672Z,11.94
2022-10-23T07:24:31.633Z,11.94
2022-10-23T07:26:06.225Z,11.94
2022-10-23T07:27:09.002Z,11.94
2022-10-23T07:28:11.896Z,11.94
2022-10-23T07:29:46.586Z,11.94
2022-10-23T07:30:49.487Z,11.94
2022-10-23T07:31:52.463Z,11.94
2022-10-23T07:33:27.114Z,11.94
2022-10-23T07:34:30.085Z,11.94
2022-10-23T07:35:35.696Z,11.94
2022-10-23T07:37:13.647Z,11.94
2022-10-23T07:38:17.154Z,11.94
2022-10-23T07:39:19.951Z,11.94
2022-10-23T07:40:54.706Z,11.94
2022-10-23T07:42:03.266Z,11.94
2022-10-23T07:43:06.214Z,12.00
2022-10-23T07:44:41.194Z,12.00
2022-10-23T07:45:44.001Z,12.00
2022-10-23T07:46:46.814Z,12.00
2022-10-23T07:48:22.210Z,12.00
2022-10-23T07:49:24.916Z,12.06
2022-10-23T07:50:27.954Z,12.06
2022-10-23T07:53:10.953Z,12.06
2022-10-23T07:54:13.847Z,12.06
2022-10-23T07:55:48.706Z,12.13
2022-10-23T07:56:51.643Z,12.13
2022-10-23T07:57:54.556Z,12.13
2022-10-23T07:59:29.280Z,12.13
2022-10-23T08:00:12.304Z,12.13
2022-10-23T08:01:16.336Z,12.13
2022-10-23T08:02:20.173Z,12.19
2022-10-23T08:03:55.782Z,12.19
2022-10-23T08:04:58.626Z,12.19
2022-10-23T08:06:01.743Z,12.19
2022-10-23T08:07:36.421Z,12.19
2022-10-23T08:08:39.380Z,12.19
2022-10-23T08:09:47.007Z,12.25
2022-10-23T08:11:21.598Z,12.25
2022-10-23T08:12:24.808Z,12.25
2022-10-23T08:13:28.283Z,12.25
2022-10-23T08:15:02.865Z,12.31
2022-10-23T08:16:05.967Z,12.31
2022-10-23T08:17:08.721Z,12.38
2022-10-23T08:18:46.602Z,12.38
2022-10-23T08:19:49.514Z,12.38
2022-10-23T08:20:52.506Z,12.44
2022-10-23T08:22:27.137Z,12.44
2022-10-23T08:23:30.189Z,12.44
2022-10-23T08:24:33.001Z,12.44
2022-10-23T08:26:12.858Z,12.44
2022-10-23T08:27:15.666Z,12.50
2022-10-23T08:28:19.225Z,12.50
2022-10-23T08:29:53.891Z,12.50
2022-10-23T08:30:56.879Z,12.50
2022-10-23T08:31:59.828Z,12.50
2022-10-23T08:33:34.662Z,12.56
2022-10-23T08:34:37.734Z,12.56
2022-10-23T08:35:40.457Z,12.56
2022-10-23T08:37:15.113Z,12.56
2022-10-23T08:38:18.389Z,12.63
2022-10-23T08:39:21.409Z,12.63
2022-10-23T08:41:00.057Z,12.63
2022-10-23T08:42:02.841Z,12.69
2022-10-23T08:43:05.653Z,12.63
2022-10-23T08:44:40.639Z,12.69
2022-10-23T08:45:43.744Z,12.69
2022-10-23T08:46:49.807Z,12.75
2022-10-23T08:48:24.545Z,12.75
2022-10-23T08:49:27.494Z,12.75
2022-10-23T08:52:04.956Z,12.81
2022-10-23T08:53:11.529Z,12.81
2022-10-23T08:54:14.534Z,12.81
2022-10-23T08:55:49.097Z,12.88
2022-10-23T08:56:51.893Z,12.88
2022-10-23T08:57:54.952Z,12.88
2022-10-23T08:59:29.784Z,12.94
2022-10-23T09:00:11.965Z,12.94
2022-10-23T09:01:15.027Z,12.94
2022-10-23T09:02:19.311Z,12.94
2022-10-23T09:03:54.804Z,13.00
2022-10-23T09:04:57.797Z,13.00
2022-10-23T09:06:00.604Z,13.00
2022-10-23T09:07:35.560Z,13.06
2022-10-23T09:08:39.024Z,13.06
2022-10-23T09:09:41.986Z,13.06
2022-10-23T09:11:16.603Z,13.13
2022-10-23T09:12:19.328Z,13.13
2022-10-23T09:13:22.201Z,13.13
2022-10-23T09:14:57.032Z,13.19
2022-10-23T09:15:59.820Z,13.19
2022-10-23T09:17:02.736Z,13.19
2022-10-23T09:18:38.377Z,13.19
2022-10-23T09:19:46.845Z,13.25
2022-10-23T09:20:49.677Z,13.25
2022-10-23T09:22:24.569Z,13.25
2022-10-23T09:23:27.533Z,13.25
2022-10-23T09:24:30.797Z,13.31
2022-10-23T09:26:12.001Z,13.31
2022-10-23T09:27:15.215Z,13.38
2022-10-23T09:28:18.535Z,13.38
2022-10-23T09:29:53.574Z,13.38
2022-10-23T09:30:56.497Z,13.38
2022-10-23T09:31:59.324Z,13.44
2022-10-23T09:33:34.330Z,13.44
2022-10-23T09:34:37.058Z,13.44
2022-10-23T09:35:39.963Z,13.50
2022-10-23T09:37:14.749Z,13.50
2022-10-23T09:38:19.655Z,13.56
2022-10-23T09:39:22.434Z,13.56
2022-10-23T09:40:57.556Z,13.63
2022-10-23T09:42:00.612Z,13.56
2022-10-23T09:43:03.322Z,13.63
2022-10-23T09:44:38.075Z,13.63
2022-10-23T09:45:40.757Z,13.69
2022-10-23T09:46:43.778Z,13.69
2022-10-23T09:48:19.152Z,13.69
2022-10-23T09:49:22.384Z,13.75
2022-10-23T09:50:25.409Z,13.75
2022-10-23T09:52:00.095Z,13.75
2022-10-23T09:53:02.916Z,13.75
2022-10-23T09:54:05.814Z,13.81
2022-10-23T09:55:40.587Z,13.81
2022-10-23T09:56:43.490Z,13.81
2022-10-23T09:57:47.157Z,13.88
2022-10-23T09:59:21.889Z,13.88
2022-10-23T10:00:12.502Z,13.88
2022-10-23T10:01:15.913Z,13.94
2022-10-23T10:02:20.287Z,13.94
2022-10-23T10:03:55.041Z,13.94
2022-10-23T10:04:57.798Z,14.00
2022-10-23T10:06:00.692Z,14.00
2022-10-23T10:07:36.732Z,14.00
2022-10-23T10:08:40.270Z,14.00
2022-10-23T10:09:43.487Z,14.00
2022-10-23T10:11:18.220Z,14.06
2022-10-23T10:12:21.198Z,14.06
2022-10-23T10:13:24.232Z,14.06
2022-10-23T10:14:59.016Z,14.00
2022-10-23T10:16:01.820Z,14.06
2022-10-23T10:17:04.852Z,14.06
2022-10-23T10:18:39.560Z,14.00
2022-10-23T10:19:42.630Z,14.06
2022-10-23T10:20:51.419Z,14.06
2022-10-23T10:22:26.338Z,14.06
2022-10-23T10:23:29.168Z,14.06
2022-10-23T10:24:32.213Z,14.06
2022-10-23T10:26:06.879Z,14.06
2022-10-23T10:27:09.978Z,14.06
2022-10-23T10:28:12.842Z,14.06
2022-10-23T10:29:47.708Z,14.13
2022-10-23T10:30:50.757Z,14.13
2022-10-23T10:31:53.530Z,14.13
2022-10-23T10:33:28.458Z,14.13
2022-10-23T10:34:31.554Z,14.13
2022-10-23T10:35:34.534Z,14.13
2022-10-23T10:37:09.755Z,14.19
2022-10-23T10:38:12.673Z,14.13
2022-10-23T10:39:15.791Z,14.19
2022-10-23T10:40:50.939Z,14.19
2022-10-23T10:41:53.583Z,14.19
2022-10-23T10:42:56.376Z,14.25
2022-10-23T10:44:31.234Z,14.25
2022-10-23T10:45:34.027Z,14.25
2022-10-23T10:46:37.158Z,14.31
2022-10-23T10:48:12.048Z,14.31
2022-10-23T10:49:14.859Z,14.31
2022-10-23T10:50:17.880Z,14.31
2022-10-23T10:51:52.673Z,14.38
2022-10-23T10:52:55.340Z,14.38
2022-10-23T10:53:58.339Z,14.38
2022-10-23T10:55:32.977Z,14.44
2022-10-23T10:56:36.133Z,14.44
2022-10-23T10:57:38.863Z,14.44
2022-10-23T10:59:17.852Z,14.44
2022-10-23T11:00:12.350Z,14.50
2022-10-23T11:01:15.502Z,14.50
2022-10-23T11:02:20.241Z,14.56
2022-10-23T11:03:55.164Z,14.56
2022-10-23T11:04:57.977Z,14.56
2022-10-23T11:06:00.628Z,14.63
2022-10-23T11:07:35.639Z,14.63
2022-10-23T11:08:49.954Z,14.63
2022-10-23T11:10:17.795Z,14.63
2022-10-23T11:11:52.602Z,14.69
2022-10-23T11:12:55.406Z,14.69
2022-10-23T11:13:58.321Z,14.69
2022-10-23T11:15:32.960Z,14.69
2022-10-23T11:16:36.189Z,14.69
2022-10-23T11:17:39.086Z,14.69
2022-10-23T11:19:14.470Z,14.69
2022-10-23T11:20:17.571Z,14.75
2022-10-23T11:21:20.345Z,14.75
2022-10-23T11:22:55.040Z,14.75
2022-10-23T11:23:57.962Z,14.75
2022-10-23T11:25:01.983Z,14.75
2022-10-23T11:26:36.751Z,14.75
2022-10-23T11:27:39.670Z,14.81
2022-10-23T11:28:51.271Z,14.81
2022-10-23T11:30:26.075Z,14.88
2022-10-23T11:31:29.056Z,14.88
2022-10-23T11:32:34.610Z,14.88
2022-10-23T11:34:09.346Z,14.94
2022-10-23T11:35:12.169Z,14.94
2022-10-23T11:36:15.174Z,14.94
2022-10-23T11:37:50.040Z,15.00
2022-10-23T11:38:52.785Z,15.00
2022-10-23T11:39:55.666Z,15.00
2022-10-23T11:41:31.763Z,15.06
2022-10-23T11:42:34.577Z,15.06
2022-10-23T11:43:38.530Z,15.13
2022-10-23T11:45:13.217Z,15.13
2022-10-23T11:46:16.197Z,15.13
2022-10-23T11:47:18.949Z,15.19
2022-10-23T11:48:58.763Z,15.19
2022-10-23T11:50:01.723Z,15.19
2022-10-23T11:51:05.305Z,15.25
2022-10-23T11:52:45.721Z,15.25
2022-10-23T11:54:11.349Z,15.31
2022-10-23T11:55:14.173Z,15.31
2022-10-23T11:56:49.026Z,15.31
2022-10-23T11:57:56.708Z,15.38
2022-10-23T11:58:59.479Z,15.38
2022-10-23T12:00:11.861Z,15.38
2022-10-23T12:01:14.710Z,15.38
2022-10-23T12:02:18.303Z,15.44
2022-10-23T12:03:54.808Z,15.44
2022-10-23T12:04:57.673Z,15.44
2022-10-23T12:06:00.552Z,15.50
2022-10-23T12:07:35.688Z,15.50
2022-10-23T12:08:39.506Z,15.50
2022-10-23T12:09:42.700Z,15.50
2022-10-23T12:11:17.893Z,15.56
2022-10-23T12:12:25.095Z,15.56
2022-10-23T12:13:28.078Z,15.63
2022-10-23T12:15:03.110Z,15.63
2022-10-23T12:16:06.096Z,15.63
2022-10-23T12:17:08.872Z,15.69
2022-10-23T12:18:43.858Z,15.69
2022-10-23T12:19:46.932Z,15.69
2022-10-23T12:20:49.792Z,15.75
2022-10-23T12:22:24.975Z,15.75
2022-10-23T12:23:28.360Z,15.81
2022-10-23T12:24:36.486Z,15.81
2022-10-23T12:26:10.975Z,15.81
2022-10-23T12:27:13.869Z,15.81
2022-10-23T12:28:17.148Z,15.88
2022-10-23T12:29:51.866Z,15.81
2022-10-23T12:31:57.804Z,15.88
2022-10-23T12:33:32.757Z,15.88
2022-10-23T12:34:35.622Z,15.88
2022-10-23T12:35:38.641Z,15.94
2022-10-23T12:37:13.409Z,15.94
2022-10-23T12:38:16.287Z,16.00
2022-10-23T12:39:25.710Z,16.00
2022-10-23T12:41:00.558Z,16.06
2022-10-23T12:42:03.470Z,16.06
2022-10-23T12:43:06.541Z,16.06
2022-10-23T12:44:41.404Z,16.19
2022-10-23T12:45:44.425Z,16.19
2022-10-23T12:46:52.597Z,16.19
2022-10-23T12:48:27.610Z,16.25
2022-10-23T12:49:30.690Z,16.25
2022-10-23T12:50:33.660Z,16.25
2022-10-23T12:52:08.510Z,16.31
2022-10-23T12:53:11.343Z,16.31
2022-10-23T12:54:14.434Z,16.31
2022-10-23T12:55:49.161Z,16.38
2022-10-23T12:56:52.151Z,16.38
2022-10-23T12:57:54.998Z,16.38
2022-10-23T12:59:29.670Z,16.38
2022-10-23T13:00:12.619Z,16.44
2022-10-23T13:01:15.747Z,16.44
2022-10-23T13:02:27.974Z,16.44
2022-10-23T13:04:03.329Z,16.44
2022-10-23T13:05:06.627Z,16.44
2022-10-23T13:06:09.745Z,16.44
2022-10-23T13:07:45.135Z,16.44
2022-10-23T13:08:48.522Z,16.44
2022-10-23T13:09:51.752Z,16.44
2022-10-23T13:11:26.548Z,16.44
2022-10-23T13:12:29.541Z,16.44
2022-10-23T13:13:32.897Z,16.38
2022-10-23T13:15:07.625Z,16.44
2022-10-23T13:16:10.646Z,16.38
2022-10-23T13:17:13.541Z,16.38
2022-10-23T13:18:49.078Z,16.38
2022-10-23T13:19:52.051Z,16.38
2022-10-23T13:20:55.077Z,16.38
2022-10-23T13:22:29.827Z,16.44
2022-10-23T13:23:39.815Z,16.50
2022-10-23T13:24:42.428Z,16.50
2022-10-23T13:26:17.360Z,16.50
2022-10-23T13:27:20.421Z,16.50
2022-10-23T13:28:23.899Z,16.50
2022-10-23T13:29:58.573Z,16.56
2022-10-23T13:31:07.334Z,16.56
2022-10-23T13:32:10.346Z,16.63
2022-10-23T13:33:45.040Z,16.63
2022-10-23T13:34:58.099Z,16.69
2022-10-23T13:36:20.811Z,16.69
2022-10-23T13:38:00.119Z,16.69
2022-10-23T13:39:03.185Z,16.75
2022-10-23T13:40:06.508Z,16.75
2022-10-23T13:41:41.325Z,16.75
2022-10-23T13:42:44.464Z,16.75
2022-10-23T13:43:47.560Z,16.75
2022-10-23T13:45:22.485Z,16.75
2022-10-23T13:46:25.370Z,16.69
2022-10-23T13:47:28.443Z,16.69
2022-10-23T13:49:03.666Z,16.69
2022-10-23T13:50:06.625Z,16.69
2022-10-23T13:51:09.762Z,16.69
2022-10-23T13:52:49.445Z,16.69
2022-10-23T13:53:52.376Z,16.69
2022-10-23T13:54:55.387Z,16.69
2022-10-23T13:56:34.197Z,16.69
2022-10-23T13:57:36.965Z,16.69
2022-10-23T13:58:40.309Z,16.69
2022-10-23T14:00:12.224Z,16.69
2022-10-23T14:01:15.365Z,16.69
2022-10-23T14:02:19.554Z,16.69
2022-10-23T14:03:55.324Z,16.69
2022-10-23T14:04:58.276Z,16.69
2022-10-23T14:06:01.303Z,16.69
2022-10-23T14:07:36.481Z,16.69
2022-10-23T14:08:39.966Z,16.69
2022-10-23T14:09:42.600Z,16.75
2022-10-23T14:11:20.366Z,16.75
2022-10-23T14:12:23.392Z,16.75
2022-10-23T14:13:27.224Z,16.75
2022-10-23T14:15:01.943Z,16.75
2022-10-23T14:16:04.836Z,16.75
2022-10-23T14:17:07.676Z,16.81
2022-10-23T14:18:48.967Z,16.81
2022-10-23T14:19:51.985Z,16.88
2022-10-23T14:21:02.517Z,16.88
2022-10-23T14:22:37.271Z,16.88
2022-10-23T14:23:40.660Z,16.88
2022-10-23T14:24:43.979Z,16.88
2022-10-23T14:26:18.776Z,16.88
2022-10-23T14:27:21.716Z,16.88
2022-10-23T14:28:24.757Z,16.88
2022-10-23T14:30:09.228Z,16.88
2022-10-23T14:31:12.052Z,16.88
2022-10-23T14:32:14.864Z,16.88
2022-10-23T14:33:50.549Z,16.94
2022-10-23T14:34:53.644Z,16.94
2022-10-23T14:35:56.709Z,16.94
2022-10-23T14:37:53.977Z,16.94
2022-10-23T14:38:56.835Z,16.94
2022-10-23T14:39:59.591Z,16.94
2022-10-23T14:41:34.519Z,16.94
2022-10-23T14:42:37.448Z,16.94
2022-10-23T14:43:40.548Z,16.94
2022-10-23T14:45:15.422Z,16.94
2022-10-23T14:46:18.203Z,16.94
2022-10-23T14:47:21.223Z,16.94
2022-10-23T14:48:59.909Z,16.88
2022-10-23T14:50:05.428Z,16.88
2022-10-23T14:51:08.372Z,16.88
2022-10-23T14:52:43.214Z,16.88
2022-10-23T14:53:47.273Z,16.88
2022-10-23T14:54:53.783Z,16.88
2022-10-23T14:56:28.289Z,16.88
2022-10-23T14:57:31.312Z,16.88
2022-10-23T14:58:35.002Z,16.88
2022-10-23T15:00:11.755Z,16.88
2022-10-23T15:01:14.888Z,16.88
2022-10-23T15:02:25.762Z,16.88
2022-10-23T15:04:00.979Z,16.88
2022-10-23T15:05:03.941Z,16.88
2022-10-23T15:06:06.775Z,16.81
2022-10-23T15:07:47.714Z,16.81
2022-10-23T15:08:51.011Z,16.81
2022-10-23T15:09:54.071Z,16.81
2022-10-23T15:11:29.407Z,16.81
2022-10-23T15:12:32.486Z,16.81
2022-10-23T15:13:35.712Z,16.75
2022-10-23T15:15:10.688Z,16.75
2022-10-23T15:16:13.487Z,16.75
2022-10-23T15:17:16.791Z,16.75
2022-10-23T15:18:51.771Z,16.75
2022-10-23T15:19:59.489Z,16.69
2022-10-23T15:21:02.570Z,16.69
2022-10-23T15:22:37.465Z,16.69
2022-10-23T15:23:40.871Z,16.63
2022-10-23T15:24:43.940Z,16.63
2022-10-23T15:26:24.824Z,16.63
2022-10-23T15:27:27.585Z,16.56
2022-10-23T15:28:30.946Z,16.56
2022-10-23T15:30:05.795Z,16.50
2022-10-23T15:31:08.754Z,16.50
2022-10-23T15:32:11.698Z,16.50
2022-10-23T15:33:46.540Z,16.50
2022-10-23T15:34:49.582Z,16.50
2022-10-23T15:35:52.660Z,16.50
2022-10-23T15:37:27.730Z,16.44
2022-10-23T15:38:31.192Z,16.44
2022-10-23T15:39:34.263Z,16.44
2022-10-23T15:41:13.641Z,16.44
2022-10-23T15:42:16.474Z,16.44
2022-10-23T15:43:20.515Z,16.38
2022-10-23T15:44:55.762Z,16.38
2022-10-23T15:46:03.896Z,16.38
2022-10-23T15:47:06.830Z,16.31
2022-10-23T15:48:41.645Z,16.31
2022-10-23T15:49:44.551Z,16.31
2022-10-23T15:50:47.700Z,16.31
2022-10-23T15:52:22.581Z,16.31
2022-10-23T15:53:26.067Z,16.25
2022-10-23T15:54:31.949Z,16.25
2022-10-23T15:56:07.893Z,16.25